ARG1341 SGAS-SABE
Flight info
| Callsign | ARG1341 |
|---|---|
| Flight time | 1h 23m |
| Altitude | 36000 |
| Route | ITAPE ASATI UP526 REPAM UZ103 DALAB UL793 GUA UZ129 PAGON PAGON8Q |
| Aircraft | B738/M-SDE2E3FGHIRWXY/LB1 |
Departure
| Time | 2026-04-15 21:00 |
|---|---|
| Airport | Silvio Pettirossi International Airport (SGAS) |
Arrival
| Time | 2026-04-15 22:24 |
|---|---|
| Airport | Aeroparque Jorge Newbery (SABE) |
| Time | Latitude | Longitude | Altitude | Speed | Heading |
|---|---|---|---|---|---|
| 2026-04-15 20:48 | -25.24174 | -57.51529 | 278 ft | 0 kts | 119° |
| 2026-04-15 20:52 | -25.24171 | -57.51536 | 278 ft | 3 kts | 122° |
| 2026-04-15 20:52 | -25.24157 | -57.51557 | 278 ft | 3 kts | 141° |
| 2026-04-15 20:53 | -25.24138 | -57.51568 | 281 ft | 3 kts | 178° |
| 2026-04-15 20:53 | -25.24121 | -57.51564 | 278 ft | 2 kts | 240° |
| 2026-04-15 20:53 | -25.24119 | -57.51558 | 278 ft | 0 kts | 241° |
| 2026-04-15 20:55 | -25.24122 | -57.51566 | 278 ft | 4 kts | 241° |
| 2026-04-15 20:55 | -25.24143 | -57.51603 | 278 ft | 8 kts | 233° |
| 2026-04-15 20:56 | -25.24198 | -57.51637 | 278 ft | 10 kts | 195° |
| 2026-04-15 20:56 | -25.24272 | -57.51656 | 278 ft | 12 kts | 193° |
| 2026-04-15 20:56 | -25.24301 | -57.51725 | 278 ft | 12 kts | 280° |
| 2026-04-15 20:56 | -25.24346 | -57.51781 | 278 ft | 11 kts | 194° |
| 2026-04-15 20:57 | -25.24433 | -57.51802 | 279 ft | 16 kts | 192° |
| 2026-04-15 20:57 | -25.24557 | -57.51831 | 278 ft | 21 kts | 192° |
| 2026-04-15 20:57 | -25.24707 | -57.51868 | 278 ft | 24 kts | 193° |
| 2026-04-15 20:57 | -25.24872 | -57.51909 | 278 ft | 25 kts | 192° |
| 2026-04-15 20:58 | -25.25041 | -57.51950 | 278 ft | 25 kts | 192° |
| 2026-04-15 20:58 | -25.25203 | -57.51989 | 279 ft | 23 kts | 192° |
| 2026-04-15 20:58 | -25.25357 | -57.52025 | 279 ft | 22 kts | 192° |
| 2026-04-15 20:58 | -25.25473 | -57.52071 | 282 ft | 15 kts | 232° |
| 2026-04-15 20:59 | -25.25470 | -57.52167 | 283 ft | 11 kts | 286° |
| 2026-04-15 20:59 | -25.25455 | -57.52225 | 286 ft | 6 kts | 290° |
| 2026-04-15 20:59 | -25.25415 | -57.52258 | 289 ft | 8 kts | 355° |
| 2026-04-15 20:59 | -25.25354 | -57.52244 | 286 ft | 18 kts | 11° |
| 2026-04-15 21:00 | -25.25016 | -57.52161 | 283 ft | 82 kts | 13° |
| 2026-04-15 21:00 | -25.24248 | -57.51975 | 283 ft | 143 kts | 12° |
| 2026-04-15 21:00 | -25.23200 | -57.51720 | 770 ft | 160 kts | 12° |
| 2026-04-15 21:00 | -25.22028 | -57.51424 | 1257 ft | 188 kts | 10° |
| 2026-04-15 21:01 | -25.20664 | -57.51073 | 1831 ft | 213 kts | 9° |
| 2026-04-15 21:01 | -25.19124 | -57.50722 | 2269 ft | 246 kts | 10° |
| 2026-04-15 21:01 | -25.17299 | -57.50285 | 2444 ft | 284 kts | 10° |
| 2026-04-15 21:01 | -25.15371 | -57.49821 | 3467 ft | 282 kts | 10° |
| 2026-04-15 21:02 | -25.13501 | -57.49250 | 4619 ft | 279 kts | 21° |
| 2026-04-15 21:02 | -25.11907 | -57.48062 | 5754 ft | 279 kts | 42° |
| 2026-04-15 21:02 | -25.10832 | -57.46285 | 6763 ft | 284 kts | 65° |
| 2026-04-15 21:02 | -25.10481 | -57.44126 | 7581 ft | 294 kts | 90° |
| 2026-04-15 21:03 | -25.10989 | -57.41931 | 8352 ft | 303 kts | 116° |
| 2026-04-15 21:03 | -25.12315 | -57.40128 | 9147 ft | 308 kts | 143° |
| 2026-04-15 21:03 | -25.14219 | -57.39092 | 9929 ft | 309 kts | 169° |
| 2026-04-15 21:03 | -25.16352 | -57.39024 | 10538 ft | 311 kts | 193° |
| 2026-04-15 21:04 | -25.18505 | -57.39506 | 11020 ft | 323 kts | 197° |
| 2026-04-15 21:04 | -25.20723 | -57.40130 | 11434 ft | 337 kts | 198° |
| 2026-04-15 21:04 | -25.23031 | -57.40803 | 11868 ft | 350 kts | 198° |
| 2026-04-15 21:04 | -25.25411 | -57.41455 | 12493 ft | 355 kts | 197° |
| 2026-04-15 21:05 | -25.27823 | -57.42072 | 13248 ft | 357 kts | 196° |
| 2026-04-15 21:05 | -25.30247 | -57.42678 | 13960 ft | 359 kts | 196° |
| 2026-04-15 21:05 | -25.32687 | -57.43299 | 14571 ft | 362 kts | 197° |
| 2026-04-15 21:05 | -25.35144 | -57.43941 | 15162 ft | 365 kts | 197° |
| 2026-04-15 21:06 | -25.37623 | -57.44596 | 15745 ft | 369 kts | 197° |
| 2026-04-15 21:06 | -25.40122 | -57.45252 | 16334 ft | 372 kts | 197° |
| 2026-04-15 21:06 | -25.42670 | -57.45812 | 16902 ft | 378 kts | 190° |
| 2026-04-15 21:06 | -25.45324 | -57.45809 | 17498 ft | 388 kts | 177° |
| 2026-04-15 21:07 | -25.47976 | -57.45162 | 18076 ft | 394 kts | 168° |
| 2026-04-15 21:07 | -25.50619 | -57.44307 | 18546 ft | 399 kts | 167° |
| 2026-04-15 21:07 | -25.53274 | -57.43391 | 19007 ft | 402 kts | 167° |
| 2026-04-15 21:07 | -25.55999 | -57.42799 | 19455 ft | 399 kts | 179° |
| 2026-04-15 21:08 | -25.58751 | -57.42856 | 19931 ft | 395 kts | 192° |
| 2026-04-15 21:08 | -25.61452 | -57.43369 | 20416 ft | 396 kts | 195° |
| 2026-04-15 21:08 | -25.64156 | -57.43952 | 20870 ft | 398 kts | 195° |
| 2026-04-15 21:08 | -25.66874 | -57.44559 | 21316 ft | 401 kts | 195° |
| 2026-04-15 21:09 | -25.69612 | -57.45159 | 21745 ft | 403 kts | 195° |
| 2026-04-15 21:09 | -25.72374 | -57.45743 | 22186 ft | 406 kts | 195° |
| 2026-04-15 21:09 | -25.75156 | -57.46322 | 22611 ft | 409 kts | 195° |
| 2026-04-15 21:09 | -25.77954 | -57.46906 | 23023 ft | 411 kts | 195° |
| 2026-04-15 21:10 | -25.80768 | -57.47501 | 23433 ft | 414 kts | 195° |
| 2026-04-15 21:10 | -25.83598 | -57.48104 | 23758 ft | 417 kts | 195° |
| 2026-04-15 21:10 | -25.86447 | -57.48713 | 24080 ft | 419 kts | 195° |
| 2026-04-15 21:10 | -25.89312 | -57.49324 | 24400 ft | 421 kts | 195° |
| 2026-04-15 21:11 | -25.92191 | -57.49935 | 24725 ft | 424 kts | 195° |
| 2026-04-15 21:11 | -25.95090 | -57.50549 | 25037 ft | 426 kts | 195° |
| 2026-04-15 21:11 | -25.98000 | -57.51166 | 25339 ft | 428 kts | 195° |
| 2026-04-15 21:11 | -26.00927 | -57.51790 | 25650 ft | 430 kts | 196° |
| 2026-04-15 21:12 | -26.03869 | -57.52418 | 25954 ft | 432 kts | 196° |
| 2026-04-15 21:12 | -26.06826 | -57.53045 | 26259 ft | 435 kts | 194° |
| 2026-04-15 21:12 | -26.09865 | -57.53341 | 26560 ft | 443 kts | 186° |
| 2026-04-15 21:12 | -26.12953 | -57.53408 | 26853 ft | 446 kts | 186° |
| 2026-04-15 21:13 | -26.16061 | -57.53445 | 27151 ft | 449 kts | 186° |
| 2026-04-15 21:13 | -26.19186 | -57.53461 | 27437 ft | 451 kts | 185° |
| 2026-04-15 21:13 | -26.22327 | -57.53479 | 27726 ft | 453 kts | 186° |
| 2026-04-15 21:13 | -26.25482 | -57.53510 | 28006 ft | 455 kts | 186° |
| 2026-04-15 21:14 | -26.28651 | -57.53551 | 28282 ft | 457 kts | 186° |
| 2026-04-15 21:14 | -26.31835 | -57.53592 | 28553 ft | 460 kts | 186° |
| 2026-04-15 21:14 | -26.35034 | -57.53628 | 28825 ft | 462 kts | 186° |
| 2026-04-15 21:14 | -26.38246 | -57.53660 | 29099 ft | 463 kts | 186° |
| 2026-04-15 21:15 | -26.41471 | -57.53691 | 29348 ft | 466 kts | 186° |
| 2026-04-15 21:15 | -26.44710 | -57.53725 | 29594 ft | 468 kts | 186° |
| 2026-04-15 21:15 | -26.47963 | -57.53761 | 29848 ft | 469 kts | 186° |
| 2026-04-15 21:15 | -26.51230 | -57.53798 | 30057 ft | 472 kts | 186° |
| 2026-04-15 21:16 | -26.54525 | -57.53834 | 30110 ft | 477 kts | 186° |
| 2026-04-15 21:16 | -26.57856 | -57.53873 | 30212 ft | 482 kts | 186° |
| 2026-04-15 21:16 | -26.61206 | -57.53909 | 30431 ft | 483 kts | 186° |
| 2026-04-15 21:16 | -26.64563 | -57.53943 | 30660 ft | 484 kts | 186° |
| 2026-04-15 21:17 | -26.67921 | -57.53976 | 30900 ft | 484 kts | 186° |
| 2026-04-15 21:17 | -26.71280 | -57.54011 | 31146 ft | 484 kts | 186° |
| 2026-04-15 21:17 | -26.74637 | -57.54048 | 31396 ft | 484 kts | 186° |
| 2026-04-15 21:17 | -26.77994 | -57.54085 | 31645 ft | 483 kts | 186° |
| 2026-04-15 21:18 | -26.81349 | -57.54123 | 31905 ft | 483 kts | 186° |
| 2026-04-15 21:18 | -26.84705 | -57.54160 | 32170 ft | 483 kts | 186° |
| 2026-04-15 21:18 | -26.88059 | -57.54207 | 32460 ft | 483 kts | 186° |
| 2026-04-15 21:18 | -26.91408 | -57.54300 | 32734 ft | 482 kts | 187° |
| 2026-04-15 21:19 | -26.94752 | -57.54424 | 32993 ft | 482 kts | 187° |
| 2026-04-15 21:19 | -26.98095 | -57.54545 | 33257 ft | 482 kts | 187° |
| 2026-04-15 21:19 | -27.01440 | -57.54645 | 33523 ft | 482 kts | 186° |
| 2026-04-15 21:19 | -27.04786 | -57.54730 | 33775 ft | 482 kts | 186° |
| 2026-04-15 21:20 | -27.08132 | -57.54815 | 34008 ft | 482 kts | 186° |
| 2026-04-15 21:20 | -27.11479 | -57.54910 | 34223 ft | 482 kts | 186° |
| 2026-04-15 21:20 | -27.14827 | -57.55012 | 34428 ft | 483 kts | 186° |
| 2026-04-15 21:20 | -27.18180 | -57.55116 | 34618 ft | 484 kts | 186° |
| 2026-04-15 21:21 | -27.21539 | -57.55216 | 34828 ft | 484 kts | 186° |
| 2026-04-15 21:21 | -27.24903 | -57.55311 | 35027 ft | 485 kts | 186° |
| 2026-04-15 21:21 | -27.28271 | -57.55406 | 35225 ft | 485 kts | 186° |
| 2026-04-15 21:21 | -27.31644 | -57.55502 | 35420 ft | 486 kts | 186° |
| 2026-04-15 21:22 | -27.35025 | -57.55602 | 35526 ft | 489 kts | 186° |
| 2026-04-15 21:22 | -27.41871 | -57.55851 | 35610 ft | 495 kts | 190° |
| 2026-04-15 21:22 | -27.45251 | -57.56457 | 35714 ft | 492 kts | 198° |
| 2026-04-15 21:23 | -27.48601 | -57.57284 | 35777 ft | 495 kts | 198° |
| 2026-04-15 21:23 | -27.55334 | -57.59041 | 35843 ft | 500 kts | 199° |
| 2026-04-15 21:24 | -27.62118 | -57.60827 | 35840 ft | 503 kts | 198° |
| 2026-04-15 21:24 | -27.68931 | -57.62580 | 35845 ft | 504 kts | 198° |
| 2026-04-15 21:25 | -27.75751 | -57.64356 | 35841 ft | 504 kts | 198° |
| 2026-04-15 21:25 | -27.82567 | -57.66139 | 35849 ft | 502 kts | 198° |
| 2026-04-15 21:26 | -27.89336 | -57.67900 | 35842 ft | 499 kts | 198° |
| 2026-04-15 21:26 | -27.96072 | -57.69661 | 35835 ft | 497 kts | 198° |
| 2026-04-15 21:27 | -28.02789 | -57.71422 | 35835 ft | 496 kts | 198° |
| 2026-04-15 21:27 | -28.09495 | -57.73177 | 35830 ft | 495 kts | 198° |
| 2026-04-15 21:28 | -28.16199 | -57.74937 | 35829 ft | 496 kts | 198° |
| 2026-04-15 21:28 | -28.22904 | -57.76699 | 35833 ft | 496 kts | 198° |
| 2026-04-15 21:29 | -28.29605 | -57.78460 | 35822 ft | 495 kts | 198° |
| 2026-04-15 21:29 | -28.36307 | -57.80203 | 35818 ft | 495 kts | 197° |
| 2026-04-15 21:30 | -28.43011 | -57.81922 | 35817 ft | 495 kts | 197° |
| 2026-04-15 21:30 | -28.49707 | -57.83661 | 35819 ft | 494 kts | 197° |
| 2026-04-15 21:31 | -28.59726 | -57.86263 | 35813 ft | 493 kts | 197° |
| 2026-04-15 21:32 | -28.69739 | -57.88865 | 35808 ft | 493 kts | 197° |
| 2026-04-15 21:32 | -28.76416 | -57.90605 | 35816 ft | 494 kts | 197° |
| 2026-04-15 21:33 | -28.83100 | -57.92347 | 35812 ft | 494 kts | 197° |
| 2026-04-15 21:33 | -28.89755 | -57.94083 | 35807 ft | 488 kts | 197° |
| 2026-04-15 21:34 | -28.96342 | -57.95804 | 35804 ft | 485 kts | 197° |
| 2026-04-15 21:34 | -29.02897 | -57.97524 | 35803 ft | 485 kts | 197° |
| 2026-04-15 21:35 | -29.09472 | -57.99246 | 35799 ft | 486 kts | 197° |
| 2026-04-15 21:35 | -29.16047 | -58.00972 | 35798 ft | 486 kts | 197° |
| 2026-04-15 21:36 | -29.22631 | -58.02703 | 35793 ft | 487 kts | 197° |
| 2026-04-15 21:36 | -29.29211 | -58.04434 | 35798 ft | 487 kts | 197° |
| 2026-04-15 21:37 | -29.35800 | -58.06169 | 35789 ft | 486 kts | 197° |
| 2026-04-15 21:37 | -29.42366 | -58.07899 | 35783 ft | 485 kts | 196° |
| 2026-04-15 21:38 | -29.49005 | -58.09340 | 35785 ft | 487 kts | 193° |
| 2026-04-15 21:38 | -29.55672 | -58.10588 | 35784 ft | 486 kts | 193° |
| 2026-04-15 21:39 | -29.62300 | -58.12017 | 35780 ft | 486 kts | 194° |
| 2026-04-15 21:39 | -29.68936 | -58.13426 | 35781 ft | 486 kts | 193° |
| 2026-04-15 21:40 | -29.75578 | -58.14782 | 35769 ft | 486 kts | 194° |
| 2026-04-15 21:40 | -29.82217 | -58.16177 | 35767 ft | 486 kts | 194° |
| 2026-04-15 21:41 | -29.88890 | -58.17478 | 35763 ft | 487 kts | 192° |
| 2026-04-15 21:41 | -29.95574 | -58.18698 | 35761 ft | 487 kts | 193° |
| 2026-04-15 21:42 | -30.02246 | -58.19992 | 35764 ft | 487 kts | 193° |
| 2026-04-15 21:42 | -30.08888 | -58.21271 | 35769 ft | 482 kts | 192° |
| 2026-04-15 21:43 | -30.15462 | -58.22518 | 35759 ft | 479 kts | 192° |
| 2026-04-15 21:43 | -30.22025 | -58.23782 | 35758 ft | 479 kts | 192° |
| 2026-04-15 21:44 | -30.28597 | -58.25047 | 35765 ft | 480 kts | 192° |
| 2026-04-15 21:44 | -30.35182 | -58.26311 | 35752 ft | 481 kts | 192° |
| 2026-04-15 21:45 | -30.41768 | -58.27580 | 35752 ft | 481 kts | 192° |
| 2026-04-15 21:45 | -30.48358 | -58.28852 | 35749 ft | 480 kts | 192° |
| 2026-04-15 21:46 | -30.54937 | -58.30123 | 35769 ft | 480 kts | 193° |
| 2026-04-15 21:46 | -30.61513 | -58.31404 | 35758 ft | 480 kts | 193° |
| 2026-04-15 21:47 | -30.68048 | -58.32853 | 35755 ft | 479 kts | 194° |
| 2026-04-15 21:47 | -30.74576 | -58.34335 | 35761 ft | 479 kts | 194° |
| 2026-04-15 21:48 | -30.81125 | -58.35742 | 35769 ft | 480 kts | 194° |
| 2026-04-15 21:48 | -30.87672 | -58.37182 | 35755 ft | 480 kts | 194° |
| 2026-04-15 21:49 | -30.94227 | -58.38590 | 35753 ft | 480 kts | 193° |
| 2026-04-15 21:49 | -31.00808 | -58.39864 | 35759 ft | 480 kts | 193° |
| 2026-04-15 21:50 | -31.07380 | -58.41192 | 35776 ft | 480 kts | 194° |
| 2026-04-15 21:50 | -31.13950 | -58.42547 | 35770 ft | 480 kts | 193° |
| 2026-04-15 21:51 | -31.20527 | -58.43872 | 35773 ft | 481 kts | 193° |
| 2026-04-15 21:51 | -31.27151 | -58.44949 | 35778 ft | 483 kts | 188° |
| 2026-04-15 21:52 | -31.33870 | -58.45380 | 35785 ft | 485 kts | 186° |
| 2026-04-15 21:52 | -31.40568 | -58.46022 | 35784 ft | 483 kts | 189° |
| 2026-04-15 21:53 | -31.47244 | -58.46790 | 35783 ft | 483 kts | 188° |
| 2026-04-15 21:53 | -31.53937 | -58.47419 | 35814 ft | 484 kts | 188° |
| 2026-04-15 21:54 | -31.60615 | -58.48075 | 35796 ft | 477 kts | 187° |
| 2026-04-15 21:54 | -31.67120 | -58.48746 | 35797 ft | 468 kts | 187° |
| 2026-04-15 21:55 | -31.73602 | -58.49397 | 35804 ft | 469 kts | 187° |
| 2026-04-15 21:55 | -31.80097 | -58.50047 | 35815 ft | 470 kts | 187° |
| 2026-04-15 21:56 | -31.86604 | -58.50705 | 35810 ft | 471 kts | 187° |
| 2026-04-15 21:56 | -31.93120 | -58.51364 | 35809 ft | 471 kts | 187° |
| 2026-04-15 21:57 | -31.99642 | -58.52022 | 35815 ft | 471 kts | 187° |
| 2026-04-15 21:57 | -32.06165 | -58.52684 | 35818 ft | 471 kts | 186° |
| 2026-04-15 21:58 | -32.12686 | -58.53346 | 35818 ft | 471 kts | 186° |
| 2026-04-15 21:58 | -32.19203 | -58.54007 | 35811 ft | 471 kts | 186° |
| 2026-04-15 21:59 | -32.25714 | -58.54670 | 35821 ft | 471 kts | 186° |
| 2026-04-15 21:59 | -32.32233 | -58.55335 | 35527 ft | 475 kts | 186° |
| 2026-04-15 21:59 | -32.35501 | -58.55668 | 35196 ft | 467 kts | 186° |
| 2026-04-15 22:00 | -32.38685 | -58.55991 | 35122 ft | 454 kts | 186° |
| 2026-04-15 22:00 | -32.41786 | -58.56307 | 34936 ft | 444 kts | 186° |
| 2026-04-15 22:00 | -32.44843 | -58.56619 | 34567 ft | 440 kts | 186° |
| 2026-04-15 22:00 | -32.47877 | -58.56932 | 34136 ft | 437 kts | 186° |
| 2026-04-15 22:01 | -32.50893 | -58.57242 | 33720 ft | 434 kts | 185° |
| 2026-04-15 22:01 | -32.53883 | -58.57548 | 33312 ft | 430 kts | 185° |
| 2026-04-15 22:01 | -32.56843 | -58.57851 | 32905 ft | 426 kts | 185° |
| 2026-04-15 22:01 | -32.59783 | -58.58152 | 32453 ft | 424 kts | 185° |
| 2026-04-15 22:02 | -32.62707 | -58.58452 | 32026 ft | 421 kts | 185° |
| 2026-04-15 22:02 | -32.65609 | -58.58750 | 31651 ft | 418 kts | 185° |
| 2026-04-15 22:02 | -32.68486 | -58.59046 | 31280 ft | 414 kts | 185° |
| 2026-04-15 22:02 | -32.71344 | -58.59339 | 30844 ft | 413 kts | 185° |
| 2026-04-15 22:03 | -32.74204 | -58.59633 | 30347 ft | 413 kts | 185° |
| 2026-04-15 22:03 | -32.77074 | -58.59931 | 29775 ft | 417 kts | 182° |
| 2026-04-15 22:03 | -32.79971 | -58.60226 | 29129 ft | 420 kts | 182° |
| 2026-04-15 22:03 | -32.82873 | -58.60525 | 28689 ft | 418 kts | 184° |
| 2026-04-15 22:04 | -32.85750 | -58.60825 | 28324 ft | 414 kts | 183° |
| 2026-04-15 22:04 | -32.88606 | -58.61121 | 27922 ft | 412 kts | 183° |
| 2026-04-15 22:04 | -32.91447 | -58.61413 | 27510 ft | 410 kts | 183° |
| 2026-04-15 22:04 | -32.94274 | -58.61701 | 27108 ft | 408 kts | 184° |
| 2026-04-15 22:05 | -32.97089 | -58.61993 | 26699 ft | 406 kts | 184° |
| 2026-04-15 22:05 | -32.99885 | -58.62289 | 26319 ft | 403 kts | 183° |
| 2026-04-15 22:05 | -33.02678 | -58.62576 | 25835 ft | 405 kts | 182° |
| 2026-04-15 22:05 | -33.05478 | -58.62863 | 25435 ft | 404 kts | 182° |
| 2026-04-15 22:06 | -33.08266 | -58.63151 | 24977 ft | 404 kts | 182° |
| 2026-04-15 22:06 | -33.11086 | -58.63443 | 24316 ft | 411 kts | 182° |
| 2026-04-15 22:06 | -33.13946 | -58.63743 | 23789 ft | 414 kts | 183° |
| 2026-04-15 22:06 | -33.16828 | -58.64044 | 23331 ft | 423 kts | 182° |
| 2026-04-15 22:07 | -33.19811 | -58.64347 | 22825 ft | 435 kts | 182° |
| 2026-04-15 22:07 | -33.22809 | -58.64657 | 22283 ft | 432 kts | 183° |
| 2026-04-15 22:07 | -33.25790 | -58.64974 | 21789 ft | 430 kts | 183° |
| 2026-04-15 22:07 | -33.28754 | -58.65287 | 21300 ft | 428 kts | 183° |
| 2026-04-15 22:08 | -33.31706 | -58.65595 | 20813 ft | 426 kts | 183° |
| 2026-04-15 22:08 | -33.34644 | -58.65899 | 20335 ft | 424 kts | 183° |
| 2026-04-15 22:08 | -33.37566 | -58.66071 | 19874 ft | 419 kts | 176° |
| 2026-04-15 22:08 | -33.40469 | -58.65963 | 19409 ft | 417 kts | 176° |
| 2026-04-15 22:09 | -33.43361 | -58.65824 | 18953 ft | 416 kts | 175° |
| 2026-04-15 22:09 | -33.46242 | -58.65640 | 18506 ft | 415 kts | 175° |
| 2026-04-15 22:09 | -33.49117 | -58.65438 | 18044 ft | 414 kts | 175° |
| 2026-04-15 22:09 | -33.51975 | -58.65247 | 17527 ft | 410 kts | 175° |
| 2026-04-15 22:10 | -33.54810 | -58.65075 | 17042 ft | 407 kts | 175° |
| 2026-04-15 22:10 | -33.57624 | -58.64912 | 16526 ft | 404 kts | 175° |
| 2026-04-15 22:10 | -33.60414 | -58.64748 | 16037 ft | 401 kts | 175° |
| 2026-04-15 22:10 | -33.63181 | -58.64578 | 15551 ft | 397 kts | 175° |
| 2026-04-15 22:11 | -33.65924 | -58.64406 | 15078 ft | 394 kts | 174° |
| 2026-04-15 22:11 | -33.68642 | -58.64235 | 14601 ft | 390 kts | 174° |
| 2026-04-15 22:11 | -33.71336 | -58.64068 | 14145 ft | 387 kts | 174° |
| 2026-04-15 22:11 | -33.74006 | -58.63905 | 13686 ft | 383 kts | 174° |
| 2026-04-15 22:12 | -33.76651 | -58.63746 | 13172 ft | 379 kts | 174° |
| 2026-04-15 22:12 | -33.79264 | -58.63587 | 12662 ft | 375 kts | 174° |
| 2026-04-15 22:12 | -33.81851 | -58.63428 | 12166 ft | 371 kts | 174° |
| 2026-04-15 22:12 | -33.84408 | -58.63271 | 11678 ft | 367 kts | 174° |
| 2026-04-15 22:13 | -33.86937 | -58.63112 | 11189 ft | 363 kts | 174° |
| 2026-04-15 22:13 | -33.89437 | -58.62956 | 10701 ft | 358 kts | 173° |
| 2026-04-15 22:13 | -33.91905 | -58.62805 | 10235 ft | 354 kts | 173° |
| 2026-04-15 22:13 | -33.94344 | -58.62656 | 9766 ft | 349 kts | 173° |
| 2026-04-15 22:14 | -33.96751 | -58.62508 | 9256 ft | 345 kts | 173° |
| 2026-04-15 22:14 | -33.99126 | -58.62361 | 8757 ft | 340 kts | 173° |
| 2026-04-15 22:14 | -34.01469 | -58.62214 | 8316 ft | 336 kts | 172° |
| 2026-04-15 22:14 | -34.03789 | -58.62070 | 7932 ft | 333 kts | 172° |
| 2026-04-15 22:15 | -34.06089 | -58.61926 | 7542 ft | 330 kts | 172° |
| 2026-04-15 22:15 | -34.08368 | -58.61785 | 7163 ft | 327 kts | 172° |
| 2026-04-15 22:15 | -34.10628 | -58.61645 | 6782 ft | 324 kts | 172° |
| 2026-04-15 22:15 | -34.12877 | -58.61504 | 6388 ft | 325 kts | 172° |
| 2026-04-15 22:16 | -34.15126 | -58.61363 | 6000 ft | 322 kts | 172° |
| 2026-04-15 22:16 | -34.17343 | -58.61228 | 5607 ft | 318 kts | 172° |
| 2026-04-15 22:16 | -34.19528 | -58.61093 | 5276 ft | 314 kts | 172° |
| 2026-04-15 22:16 | -34.21689 | -58.60960 | 4929 ft | 309 kts | 172° |
| 2026-04-15 22:17 | -34.23824 | -58.60826 | 4574 ft | 306 kts | 172° |
| 2026-04-15 22:17 | -34.25935 | -58.60694 | 4226 ft | 303 kts | 172° |
| 2026-04-15 22:17 | -34.28006 | -58.60565 | 3881 ft | 294 kts | 173° |
| 2026-04-15 22:17 | -34.30013 | -58.60439 | 3535 ft | 286 kts | 174° |
| 2026-04-15 22:18 | -34.31944 | -58.60328 | 3221 ft | 269 kts | 172° |
| 2026-04-15 22:18 | -34.33754 | -58.60206 | 3019 ft | 253 kts | 173° |
| 2026-04-15 22:18 | -34.35447 | -58.60089 | 3016 ft | 236 kts | 173° |
| 2026-04-15 22:18 | -34.37062 | -58.59987 | 3008 ft | 229 kts | 173° |
| 2026-04-15 22:19 | -34.38624 | -58.59894 | 3007 ft | 222 kts | 174° |
| 2026-04-15 22:19 | -34.40154 | -58.59808 | 3010 ft | 219 kts | 173° |
| 2026-04-15 22:19 | -34.41675 | -58.59716 | 3013 ft | 220 kts | 172° |
| 2026-04-15 22:19 | -34.43214 | -58.59616 | 3023 ft | 224 kts | 172° |
| 2026-04-15 22:20 | -34.44771 | -58.59468 | 3022 ft | 225 kts | 163° |
| 2026-04-15 22:20 | -34.46164 | -58.58697 | 2980 ft | 221 kts | 139° |
| 2026-04-15 22:20 | -34.47158 | -58.57307 | 2875 ft | 219 kts | 124° |
| 2026-04-15 22:20 | -34.47990 | -58.55786 | 2621 ft | 213 kts | 124° |
| 2026-04-15 22:21 | -34.48781 | -58.54354 | 2342 ft | 193 kts | 124° |
| 2026-04-15 22:21 | -34.49463 | -58.53129 | 2094 ft | 161 kts | 125° |
| 2026-04-15 22:21 | -34.50041 | -58.52097 | 1894 ft | 137 kts | 126° |
| 2026-04-15 22:21 | -34.50557 | -58.51178 | 1731 ft | 129 kts | 126° |
| 2026-04-15 22:22 | -34.51050 | -58.50296 | 1575 ft | 123 kts | 125° |
| 2026-04-15 22:22 | -34.51521 | -58.49453 | 1407 ft | 119 kts | 124° |
| 2026-04-15 22:22 | -34.51984 | -58.48623 | 1266 ft | 121 kts | 128° |
| 2026-04-15 22:22 | -34.52476 | -58.47743 | 1076 ft | 129 kts | 126° |
| 2026-04-15 22:23 | -34.52972 | -58.46851 | 894 ft | 126 kts | 126° |
| 2026-04-15 22:23 | -34.53459 | -58.45979 | 701 ft | 126 kts | 126° |
| 2026-04-15 22:23 | -34.53967 | -58.45073 | 543 ft | 134 kts | 126° |
| 2026-04-15 22:23 | -34.54505 | -58.44106 | 376 ft | 142 kts | 127° |
| 2026-04-15 22:24 | -34.55051 | -58.43130 | 197 ft | 137 kts | 126° |
| 2026-04-15 22:24 | -34.55572 | -58.42202 | 38 ft | 129 kts | 126° |
| 2026-04-15 22:24 | -34.55913 | -58.41594 | 26 ft | 29 kts | 124° |
| 2026-04-15 22:24 | -34.55987 | -58.41460 | 28 ft | 17 kts | 122° |
| 2026-04-15 22:25 | -34.56018 | -58.41375 | 27 ft | 8 kts | 79° |
| 2026-04-15 22:25 | -34.55985 | -58.41336 | 27 ft | 6 kts | 34° |
| 2026-04-15 22:25 | -34.55953 | -58.41312 | 28 ft | 5 kts | 26° |
| 2026-04-15 22:25 | -34.55921 | -58.41306 | 28 ft | 5 kts | 2° |
| 2026-04-15 22:26 | -34.55892 | -58.41296 | 28 ft | 4 kts | 25° |
| 2026-04-15 22:26 | -34.55864 | -58.41280 | 28 ft | 4 kts | 17° |
| 2026-04-15 22:26 | -34.55837 | -58.41292 | 28 ft | 4 kts | 321° |
| 2026-04-15 22:26 | -34.55814 | -58.41324 | 28 ft | 6 kts | 307° |
| 2026-04-15 22:27 | -34.55793 | -58.41361 | 28 ft | 5 kts | 304° |
| 2026-04-15 22:27 | -34.55794 | -58.41384 | 28 ft | 3 kts | 227° |
| 2026-04-15 22:27 | -34.55811 | -58.41399 | 28 ft | 3 kts | 213° |
| 2026-04-15 22:27 | -34.55819 | -58.41406 | 28 ft | 0 kts | 211° |